sensor_id;sensor_type;location;lat;lon;timestamp;P1;durP1;ratioP1;P2;durP2;ratioP2
56567;SDS011;42456;49.956;20.004;2023-03-03T00:01:15;51.70;;;25.80;;
56567;SDS011;42456;49.956;20.004;2023-03-03T00:03:42;47.60;;;23.60;;
56567;SDS011;42456;49.956;20.004;2023-03-03T00:06:10;44.60;;;22.40;;
56567;SDS011;42456;49.956;20.004;2023-03-03T00:08:39;67.20;;;31.00;;
56567;SDS011;42456;49.956;20.004;2023-03-03T00:11:06;57.80;;;28.80;;
56567;SDS011;42456;49.956;20.004;2023-03-03T00:13:42;59.70;;;28.70;;
56567;SDS011;42456;49.956;20.004;2023-03-03T00:18:45;41.70;;;21.60;;
56567;SDS011;42456;49.956;20.004;2023-03-03T00:23:48;46.70;;;21.50;;
56567;SDS011;42456;49.956;20.004;2023-03-03T00:29:00;63.20;;;29.70;;
56567;SDS011;42456;49.956;20.004;2023-03-03T00:31:32;46.90;;;24.60;;
56567;SDS011;42456;49.956;20.004;2023-03-03T00:34:11;50.90;;;25.80;;
56567;SDS011;42456;49.956;20.004;2023-03-03T00:36:54;46.00;;;23.50;;
56567;SDS011;42456;49.956;20.004;2023-03-03T00:39:27;68.90;;;32.10;;
56567;SDS011;42456;49.956;20.004;2023-03-03T00:41:55;76.70;;;33.80;;
56567;SDS011;42456;49.956;20.004;2023-03-03T00:49:40;77.20;;;33.90;;
56567;SDS011;42456;49.956;20.004;2023-03-03T00:52:17;74.90;;;33.60;;
56567;SDS011;42456;49.956;20.004;2023-03-03T00:54:45;73.30;;;32.60;;
56567;SDS011;42456;49.956;20.004;2023-03-03T00:57:11;72.80;;;33.40;;
56567;SDS011;42456;49.956;20.004;2023-03-03T00:59:38;76.90;;;34.00;;
56567;SDS011;42456;49.956;20.004;2023-03-03T01:02:06;73.70;;;33.50;;
56567;SDS011;42456;49.956;20.004;2023-03-03T01:04:32;73.40;;;30.20;;
56567;SDS011;42456;49.956;20.004;2023-03-03T01:06:59;59.10;;;29.10;;
56567;SDS011;42456;49.956;20.004;2023-03-03T01:09:26;52.30;;;23.80;;
56567;SDS011;42456;49.956;20.004;2023-03-03T01:11:53;46.60;;;23.10;;
56567;SDS011;42456;49.956;20.004;2023-03-03T01:14:20;48.80;;;24.00;;
56567;SDS011;42456;49.956;20.004;2023-03-03T01:16:47;44.50;;;23.80;;
56567;SDS011;42456;49.956;20.004;2023-03-03T01:19:15;43.40;;;22.30;;
56567;SDS011;42456;49.956;20.004;2023-03-03T01:21:42;43.60;;;22.90;;
56567;SDS011;42456;49.956;20.004;2023-03-03T01:24:10;47.90;;;24.60;;
56567;SDS011;42456;49.956;20.004;2023-03-03T01:26:36;49.00;;;24.60;;
56567;SDS011;42456;49.956;20.004;2023-03-03T01:29:03;46.10;;;24.20;;
56567;SDS011;42456;49.956;20.004;2023-03-03T01:31:30;45.80;;;23.50;;
56567;SDS011;42456;49.956;20.004;2023-03-03T01:33:56;42.90;;;22.50;;
56567;SDS011;42456;49.956;20.004;2023-03-03T01:36:24;52.10;;;27.50;;
56567;SDS011;42456;49.956;20.004;2023-03-03T01:38:51;49.30;;;23.40;;
56567;SDS011;42456;49.956;20.004;2023-03-03T01:41:18;43.30;;;22.20;;
56567;SDS011;42456;49.956;20.004;2023-03-03T01:43:47;48.50;;;23.80;;
56567;SDS011;42456;49.956;20.004;2023-03-03T01:49:06;52.40;;;26.90;;
56567;SDS011;42456;49.956;20.004;2023-03-03T01:52:01;71.40;;;32.90;;
56567;SDS011;42456;49.956;20.004;2023-03-03T01:54:30;83.50;;;33.20;;
56567;SDS011;42456;49.956;20.004;2023-03-03T01:57:04;111.90;;;37.70;;
56567;SDS011;42456;49.956;20.004;2023-03-03T01:59:37;114.30;;;40.90;;
56567;SDS011;42456;49.956;20.004;2023-03-03T02:02:08;85.70;;;35.70;;
56567;SDS011;42456;49.956;20.004;2023-03-03T02:04:35;107.80;;;41.60;;
56567;SDS011;42456;49.956;20.004;2023-03-03T02:07:04;84.90;;;36.20;;
56567;SDS011;42456;49.956;20.004;2023-03-03T02:09:42;94.30;;;37.70;;
56567;SDS011;42456;49.956;20.004;2023-03-03T02:12:16;85.30;;;36.50;;
56567;SDS011;42456;49.956;20.004;2023-03-03T02:14:45;85.90;;;36.50;;
56567;SDS011;42456;49.956;20.004;2023-03-03T02:17:12;85.90;;;37.80;;
56567;SDS011;42456;49.956;20.004;2023-03-03T02:25:48;53.90;;;26.20;;
56567;SDS011;42456;49.956;20.004;2023-03-03T02:28:28;53.50;;;26.10;;
56567;SDS011;42456;49.956;20.004;2023-03-03T02:30:57;54.60;;;26.40;;
56567;SDS011;42456;49.956;20.004;2023-03-03T02:33:26;51.00;;;25.40;;
56567;SDS011;42456;49.956;20.004;2023-03-03T02:35:53;52.60;;;26.40;;
56567;SDS011;42456;49.956;20.004;2023-03-03T02:38:24;53.70;;;27.90;;
56567;SDS011;42456;49.956;20.004;2023-03-03T02:43:33;48.70;;;25.10;;
56567;SDS011;42456;49.956;20.004;2023-03-03T02:46:08;47.00;;;25.20;;
56567;SDS011;42456;49.956;20.004;2023-03-03T02:48:34;53.90;;;24.50;;
56567;SDS011;42456;49.956;20.004;2023-03-03T02:51:01;47.10;;;23.60;;
56567;SDS011;42456;49.956;20.004;2023-03-03T02:53:28;43.40;;;21.90;;
56567;SDS011;42456;49.956;20.004;2023-03-03T02:55:54;50.30;;;23.40;;
56567;SDS011;42456;49.956;20.004;2023-03-03T02:58:21;52.10;;;25.50;;
56567;SDS011;42456;49.956;20.004;2023-03-03T03:00:48;51.60;;;26.50;;
56567;SDS011;42456;49.956;20.004;2023-03-03T03:03:15;55.20;;;27.20;;
56567;SDS011;42456;49.956;20.004;2023-03-03T03:05:42;47.80;;;24.80;;
56567;SDS011;42456;49.956;20.004;2023-03-03T03:08:09;78.90;;;33.80;;
56567;SDS011;42456;49.956;20.004;2023-03-03T03:10:35;106.70;;;39.20;;
56567;SDS011;42456;49.956;20.004;2023-03-03T03:13:02;116.30;;;41.80;;
56567;SDS011;42456;49.956;20.004;2023-03-03T03:15:29;152.50;;;49.10;;
56567;SDS011;42456;49.956;20.004;2023-03-03T03:17:56;179.70;;;57.60;;
56567;SDS011;42456;49.956;20.004;2023-03-03T03:20:22;175.20;;;53.00;;
56567;SDS011;42456;49.956;20.004;2023-03-03T03:22:49;160.60;;;54.40;;
56567;SDS011;42456;49.956;20.004;2023-03-03T03:25:16;134.20;;;49.60;;
56567;SDS011;42456;49.956;20.004;2023-03-03T03:27:43;108.40;;;42.90;;
56567;SDS011;42456;49.956;20.004;2023-03-03T03:30:09;105.50;;;41.70;;
56567;SDS011;42456;49.956;20.004;2023-03-03T03:32:37;101.30;;;38.80;;
56567;SDS011;42456;49.956;20.004;2023-03-03T03:35:04;77.90;;;33.50;;
56567;SDS011;42456;49.956;20.004;2023-03-03T03:37:31;67.90;;;31.40;;
56567;SDS011;42456;49.956;20.004;2023-03-03T03:39:58;61.40;;;29.40;;
56567;SDS011;42456;49.956;20.004;2023-03-03T03:42:24;54.00;;;24.40;;
56567;SDS011;42456;49.956;20.004;2023-03-03T03:44:51;62.30;;;28.10;;
56567;SDS011;42456;49.956;20.004;2023-03-03T03:47:18;53.90;;;25.20;;
56567;SDS011;42456;49.956;20.004;2023-03-03T03:49:45;49.40;;;23.60;;
56567;SDS011;42456;49.956;20.004;2023-03-03T03:52:11;53.20;;;26.90;;
56567;SDS011;42456;49.956;20.004;2023-03-03T03:54:38;45.80;;;22.90;;
56567;SDS011;42456;49.956;20.004;2023-03-03T03:57:05;46.70;;;24.80;;
56567;SDS011;42456;49.956;20.004;2023-03-03T03:59:32;57.00;;;26.40;;
56567;SDS011;42456;49.956;20.004;2023-03-03T04:01:59;52.30;;;25.20;;
56567;SDS011;42456;49.956;20.004;2023-03-03T04:04:26;53.00;;;26.10;;
56567;SDS011;42456;49.956;20.004;2023-03-03T04:06:52;48.20;;;23.60;;
56567;SDS011;42456;49.956;20.004;2023-03-03T04:09:19;52.00;;;27.10;;
56567;SDS011;42456;49.956;20.004;2023-03-03T04:11:46;48.80;;;25.80;;
56567;SDS011;42456;49.956;20.004;2023-03-03T04:14:13;50.20;;;27.30;;
56567;SDS011;42456;49.956;20.004;2023-03-03T04:16:39;46.80;;;23.10;;
56567;SDS011;42456;49.956;20.004;2023-03-03T04:19:06;50.30;;;25.30;;
56567;SDS011;42456;49.956;20.004;2023-03-03T04:21:33;49.40;;;25.20;;
56567;SDS011;42456;49.956;20.004;2023-03-03T04:24:00;47.90;;;26.00;;
56567;SDS011;42456;49.956;20.004;2023-03-03T04:26:26;69.30;;;31.90;;
56567;SDS011;42456;49.956;20.004;2023-03-03T04:28:53;82.90;;;31.70;;
56567;SDS011;42456;49.956;20.004;2023-03-03T04:31:20;82.10;;;33.00;;
56567;SDS011;42456;49.956;20.004;2023-03-03T04:33:47;83.90;;;36.20;;
56567;SDS011;42456;49.956;20.004;2023-03-03T04:36:13;88.20;;;35.90;;
56567;SDS011;42456;49.956;20.004;2023-03-03T04:38:40;84.20;;;35.10;;
56567;SDS011;42456;49.956;20.004;2023-03-03T04:41:07;87.20;;;37.00;;
56567;SDS011;42456;49.956;20.004;2023-03-03T04:43:34;90.50;;;36.60;;
56567;SDS011;42456;49.956;20.004;2023-03-03T04:46:01;130.30;;;43.30;;
56567;SDS011;42456;49.956;20.004;2023-03-03T04:48:28;125.40;;;42.70;;
56567;SDS011;42456;49.956;20.004;2023-03-03T04:50:54;132.90;;;44.10;;
56567;SDS011;42456;49.956;20.004;2023-03-03T04:53:21;129.00;;;43.70;;
56567;SDS011;42456;49.956;20.004;2023-03-03T04:55:49;114.00;;;40.70;;
56567;SDS011;42456;49.956;20.004;2023-03-03T04:58:17;123.60;;;43.80;;
56567;SDS011;42456;49.956;20.004;2023-03-03T05:00:45;117.50;;;42.50;;
56567;SDS011;42456;49.956;20.004;2023-03-03T05:03:18;105.30;;;40.00;;
56567;SDS011;42456;49.956;20.004;2023-03-03T05:05:46;82.00;;;35.00;;
56567;SDS011;42456;49.956;20.004;2023-03-03T05:08:13;83.80;;;33.80;;
56567;SDS011;42456;49.956;20.004;2023-03-03T05:10:40;76.40;;;33.80;;
56567;SDS011;42456;49.956;20.004;2023-03-03T05:13:07;81.10;;;32.40;;
56567;SDS011;42456;49.956;20.004;2023-03-03T05:15:35;81.70;;;35.20;;
56567;SDS011;42456;49.956;20.004;2023-03-03T05:18:02;82.60;;;32.60;;
56567;SDS011;42456;49.956;20.004;2023-03-03T05:20:29;69.00;;;31.10;;
56567;SDS011;42456;49.956;20.004;2023-03-03T05:22:56;64.40;;;28.30;;
56567;SDS011;42456;49.956;20.004;2023-03-03T05:25:25;56.20;;;26.80;;
56567;SDS011;42456;49.956;20.004;2023-03-03T05:27:51;53.30;;;25.70;;
56567;SDS011;42456;49.956;20.004;2023-03-03T05:30:20;54.60;;;27.80;;
56567;SDS011;42456;49.956;20.004;2023-03-03T05:32:47;55.90;;;26.70;;
56567;SDS011;42456;49.956;20.004;2023-03-03T05:35:13;55.80;;;26.70;;
56567;SDS011;42456;49.956;20.004;2023-03-03T05:37:40;51.10;;;24.80;;
56567;SDS011;42456;49.956;20.004;2023-03-03T05:40:12;49.40;;;23.20;;
56567;SDS011;42456;49.956;20.004;2023-03-03T05:42:40;47.20;;;23.10;;
56567;SDS011;42456;49.956;20.004;2023-03-03T05:45:07;43.40;;;22.00;;
56567;SDS011;42456;49.956;20.004;2023-03-03T05:47:34;54.30;;;27.00;;
56567;SDS011;42456;49.956;20.004;2023-03-03T05:50:01;51.40;;;26.10;;
56567;SDS011;42456;49.956;20.004;2023-03-03T05:52:28;71.10;;;31.70;;
56567;SDS011;42456;49.956;20.004;2023-03-03T05:54:55;55.30;;;28.60;;
56567;SDS011;42456;49.956;20.004;2023-03-03T05:57:22;49.40;;;26.10;;
56567;SDS011;42456;49.956;20.004;2023-03-03T05:59:49;54.60;;;26.90;;
56567;SDS011;42456;49.956;20.004;2023-03-03T06:02:15;51.80;;;26.20;;
56567;SDS011;42456;49.956;20.004;2023-03-03T06:04:43;54.50;;;27.90;;
56567;SDS011;42456;49.956;20.004;2023-03-03T06:07:09;51.80;;;25.90;;
56567;SDS011;42456;49.956;20.004;2023-03-03T06:09:36;59.80;;;27.70;;
56567;SDS011;42456;49.956;20.004;2023-03-03T06:12:03;51.70;;;26.40;;
56567;SDS011;42456;49.956;20.004;2023-03-03T06:14:31;53.60;;;26.20;;
56567;SDS011;42456;49.956;20.004;2023-03-03T06:16:57;77.00;;;33.70;;
56567;SDS011;42456;49.956;20.004;2023-03-03T06:19:24;101.00;;;35.80;;
56567;SDS011;42456;49.956;20.004;2023-03-03T06:21:51;145.70;;;45.80;;
56567;SDS011;42456;49.956;20.004;2023-03-03T06:24:18;181.70;;;52.40;;
56567;SDS011;42456;49.956;20.004;2023-03-03T06:26:45;167.10;;;52.30;;
56567;SDS011;42456;49.956;20.004;2023-03-03T06:29:12;177.50;;;53.40;;
56567;SDS011;42456;49.956;20.004;2023-03-03T06:31:41;189.20;;;56.80;;
56567;SDS011;42456;49.956;20.004;2023-03-03T06:34:08;165.80;;;54.30;;
56567;SDS011;42456;49.956;20.004;2023-03-03T06:36:35;154.40;;;52.60;;
56567;SDS011;42456;49.956;20.004;2023-03-03T06:39:02;142.40;;;48.70;;
56567;SDS011;42456;49.956;20.004;2023-03-03T06:41:29;155.20;;;56.90;;
56567;SDS011;42456;49.956;20.004;2023-03-03T06:43:56;103.90;;;43.00;;
56567;SDS011;42456;49.956;20.004;2023-03-03T06:46:25;85.00;;;39.30;;
56567;SDS011;42456;49.956;20.004;2023-03-03T06:48:53;92.90;;;40.70;;
56567;SDS011;42456;49.956;20.004;2023-03-03T06:51:24;93.30;;;43.10;;
56567;SDS011;42456;49.956;20.004;2023-03-03T06:53:55;105.40;;;46.20;;
56567;SDS011;42456;49.956;20.004;2023-03-03T06:56:24;106.10;;;48.50;;
56567;SDS011;42456;49.956;20.004;2023-03-03T06:59:00;105.90;;;48.20;;
56567;SDS011;42456;49.956;20.004;2023-03-03T07:04:13;97.50;;;43.40;;
56567;SDS011;42456;49.956;20.004;2023-03-03T07:06:46;88.10;;;42.40;;
56567;SDS011;42456;49.956;20.004;2023-03-03T07:09:16;87.90;;;42.70;;
56567;SDS011;42456;49.956;20.004;2023-03-03T07:11:47;102.20;;;45.90;;
56567;SDS011;42456;49.956;20.004;2023-03-03T07:14:15;86.70;;;42.70;;
56567;SDS011;42456;49.956;20.004;2023-03-03T07:16:46;112.00;;;49.20;;
56567;SDS011;42456;49.956;20.004;2023-03-03T07:19:32;92.40;;;42.20;;
56567;SDS011;42456;49.956;20.004;2023-03-03T07:22:07;97.80;;;44.00;;
56567;SDS011;42456;49.956;20.004;2023-03-03T07:24:38;88.70;;;41.30;;
56567;SDS011;42456;49.956;20.004;2023-03-03T07:29:53;169.70;;;60.90;;
56567;SDS011;42456;49.956;20.004;2023-03-03T07:32:53;196.30;;;67.90;;
56567;SDS011;42456;49.956;20.004;2023-03-03T07:40:51;187.90;;;67.90;;
56567;SDS011;42456;49.956;20.004;2023-03-03T07:46:24;137.60;;;56.20;;
56567;SDS011;42456;49.956;20.004;2023-03-03T07:48:53;130.30;;;55.70;;
56567;SDS011;42456;49.956;20.004;2023-03-03T07:53:59;85.80;;;41.60;;
56567;SDS011;42456;49.956;20.004;2023-03-03T07:56:46;83.20;;;39.90;;
56567;SDS011;42456;49.956;20.004;2023-03-03T07:59:19;79.90;;;39.30;;
56567;SDS011;42456;49.956;20.004;2023-03-03T08:01:52;78.10;;;38.50;;
56567;SDS011;42456;49.956;20.004;2023-03-03T08:04:28;80.50;;;39.60;;
56567;SDS011;42456;49.956;20.004;2023-03-03T08:07:08;68.10;;;35.70;;
56567;SDS011;42456;49.956;20.004;2023-03-03T08:10:07;68.30;;;36.30;;
56567;SDS011;42456;49.956;20.004;2023-03-03T08:12:48;80.40;;;39.70;;
56567;SDS011;42456;49.956;20.004;2023-03-03T08:17:44;82.80;;;40.00;;
56567;SDS011;42456;49.956;20.004;2023-03-03T08:23:08;79.50;;;39.90;;
56567;SDS011;42456;49.956;20.004;2023-03-03T08:25:35;80.20;;;42.20;;
56567;SDS011;42456;49.956;20.004;2023-03-03T08:28:02;80.80;;;40.40;;
56567;SDS011;42456;49.956;20.004;2023-03-03T08:30:29;93.30;;;46.60;;
56567;SDS011;42456;49.956;20.004;2023-03-03T08:32:57;94.40;;;44.20;;
56567;SDS011;42456;49.956;20.004;2023-03-03T08:35:24;89.40;;;43.90;;
56567;SDS011;42456;49.956;20.004;2023-03-03T08:37:51;89.70;;;42.30;;
56567;SDS011;42456;49.956;20.004;2023-03-03T08:40:18;84.40;;;41.40;;
56567;SDS011;42456;49.956;20.004;2023-03-03T08:42:45;86.20;;;42.10;;
56567;SDS011;42456;49.956;20.004;2023-03-03T08:45:12;91.60;;;41.20;;
56567;SDS011;42456;49.956;20.004;2023-03-03T08:47:38;89.10;;;43.30;;
56567;SDS011;42456;49.956;20.004;2023-03-03T08:50:05;79.90;;;42.40;;
56567;SDS011;42456;49.956;20.004;2023-03-03T08:52:32;90.90;;;44.60;;
56567;SDS011;42456;49.956;20.004;2023-03-03T08:54:59;90.90;;;43.90;;
56567;SDS011;42456;49.956;20.004;2023-03-03T08:57:26;77.90;;;41.40;;
56567;SDS011;42456;49.956;20.004;2023-03-03T08:59:53;91.00;;;47.00;;
56567;SDS011;42456;49.956;20.004;2023-03-03T09:02:20;88.50;;;42.80;;
56567;SDS011;42456;49.956;20.004;2023-03-03T09:04:47;81.80;;;41.70;;
56567;SDS011;42456;49.956;20.004;2023-03-03T09:07:14;88.40;;;42.60;;
56567;SDS011;42456;49.956;20.004;2023-03-03T09:09:41;94.70;;;45.60;;
56567;SDS011;42456;49.956;20.004;2023-03-03T09:12:16;103.00;;;47.80;;
56567;SDS011;42456;49.956;20.004;2023-03-03T09:14:44;100.10;;;50.00;;
56567;SDS011;42456;49.956;20.004;2023-03-03T09:17:18;105.90;;;50.50;;
56567;SDS011;42456;49.956;20.004;2023-03-03T09:19:51;104.40;;;51.00;;
56567;SDS011;42456;49.956;20.004;2023-03-03T09:22:22;98.60;;;50.40;;
56567;SDS011;42456;49.956;20.004;2023-03-03T09:24:56;108.90;;;52.30;;
56567;SDS011;42456;49.956;20.004;2023-03-03T09:27:33;101.90;;;51.40;;
56567;SDS011;42456;49.956;20.004;2023-03-03T09:30:23;100.60;;;51.60;;
56567;SDS011;42456;49.956;20.004;2023-03-03T09:32:52;119.80;;;54.50;;
56567;SDS011;42456;49.956;20.004;2023-03-03T09:35:34;118.50;;;54.90;;
56567;SDS011;42456;49.956;20.004;2023-03-03T09:38:25;118.40;;;54.60;;
56567;SDS011;42456;49.956;20.004;2023-03-03T09:41:00;114.00;;;53.00;;
56567;SDS011;42456;49.956;20.004;2023-03-03T09:43:35;107.90;;;53.20;;
56567;SDS011;42456;49.956;20.004;2023-03-03T09:46:16;95.30;;;49.20;;
56567;SDS011;42456;49.956;20.004;2023-03-03T09:48:56;85.00;;;43.00;;
56567;SDS011;42456;49.956;20.004;2023-03-03T10:02:37;88.60;;;45.60;;
56567;SDS011;42456;49.956;20.004;2023-03-03T10:08:02;86.90;;;44.80;;
56567;SDS011;42456;49.956;20.004;2023-03-03T10:13:52;96.90;;;49.90;;
56567;SDS011;42456;49.956;20.004;2023-03-03T10:19:21;111.40;;;56.10;;
56567;SDS011;42456;49.956;20.004;2023-03-03T10:22:03;107.10;;;55.80;;
56567;SDS011;42456;49.956;20.004;2023-03-03T10:24:51;112.60;;;57.90;;
56567;SDS011;42456;49.956;20.004;2023-03-03T10:59:31;107.90;;;51.10;;
56567;SDS011;42456;49.956;20.004;2023-03-03T11:02:15;101.30;;;51.00;;
56567;SDS011;42456;49.956;20.004;2023-03-03T11:07:47;124.90;;;61.40;;
56567;SDS011;42456;49.956;20.004;2023-03-03T11:21:57;140.90;;;66.60;;
56567;SDS011;42456;49.956;20.004;2023-03-03T11:30:23;122.70;;;58.60;;
56567;SDS011;42456;49.956;20.004;2023-03-03T11:33:05;140.10;;;67.90;;
56567;SDS011;42456;49.956;20.004;2023-03-03T11:38:33;137.70;;;65.30;;
56567;SDS011;42456;49.956;20.004;2023-03-03T11:43:54;145.10;;;66.20;;
56567;SDS011;42456;49.956;20.004;2023-03-03T11:46:37;145.90;;;70.10;;
56567;SDS011;42456;49.956;20.004;2023-03-03T11:57:27;154.40;;;69.00;;
56567;SDS011;42456;49.956;20.004;2023-03-03T12:00:27;162.40;;;70.20;;
56567;SDS011;42456;49.956;20.004;2023-03-03T12:05:54;177.70;;;75.50;;
56567;SDS011;42456;49.956;20.004;2023-03-03T12:08:35;164.40;;;71.80;;
56567;SDS011;42456;49.956;20.004;2023-03-03T12:17:02;140.30;;;62.80;;
56567;SDS011;42456;49.956;20.004;2023-03-03T12:19:49;137.00;;;61.00;;
56567;SDS011;42456;49.956;20.004;2023-03-03T12:42:02;133.20;;;55.40;;
56567;SDS011;42456;49.956;20.004;2023-03-03T12:44:36;127.40;;;52.60;;
56567;SDS011;42456;49.956;20.004;2023-03-03T12:50:16;117.50;;;49.50;;
56567;SDS011;42456;49.956;20.004;2023-03-03T12:58:40;113.10;;;47.40;;
56567;SDS011;42456;49.956;20.004;2023-03-03T13:04:06;108.00;;;46.60;;
56567;SDS011;42456;49.956;20.004;2023-03-03T13:09:18;100.10;;;42.00;;
56567;SDS011;42456;49.956;20.004;2023-03-03T13:12:11;100.00;;;43.00;;
56567;SDS011;42456;49.956;20.004;2023-03-03T13:23:05;95.60;;;38.40;;
56567;SDS011;42456;49.956;20.004;2023-03-03T13:31:04;79.30;;;34.40;;
56567;SDS011;42456;49.956;20.004;2023-03-03T13:33:39;91.90;;;39.00;;
56567;SDS011;42456;49.956;20.004;2023-03-03T13:36:15;78.90;;;34.40;;
56567;SDS011;42456;49.956;20.004;2023-03-03T13:38:47;78.80;;;35.10;;
56567;SDS011;42456;49.956;20.004;2023-03-03T13:44:08;82.70;;;34.00;;
56567;SDS011;42456;49.956;20.004;2023-03-03T13:52:18;64.30;;;28.00;;
56567;SDS011;42456;49.956;20.004;2023-03-03T14:08:11;62.60;;;26.50;;
56567;SDS011;42456;49.956;20.004;2023-03-03T14:13:48;70.00;;;26.00;;
56567;SDS011;42456;49.956;20.004;2023-03-03T14:22:21;52.70;;;22.00;;
56567;SDS011;42456;49.956;20.004;2023-03-03T14:25:00;67.00;;;27.30;;
56567;SDS011;42456;49.956;20.004;2023-03-03T14:27:35;55.80;;;26.00;;
56567;SDS011;42456;49.956;20.004;2023-03-03T14:38:15;52.30;;;22.50;;
56567;SDS011;42456;49.956;20.004;2023-03-03T14:40:44;53.10;;;22.20;;
56567;SDS011;42456;49.956;20.004;2023-03-03T14:49:00;65.00;;;24.50;;
56567;SDS011;42456;49.956;20.004;2023-03-03T14:51:32;58.40;;;23.50;;
56567;SDS011;42456;49.956;20.004;2023-03-03T14:53:59;60.10;;;23.80;;
56567;SDS011;42456;49.956;20.004;2023-03-03T14:56:32;59.50;;;24.10;;
56567;SDS011;42456;49.956;20.004;2023-03-03T15:01:44;50.50;;;21.30;;
56567;SDS011;42456;49.956;20.004;2023-03-03T15:11:54;47.30;;;21.30;;
56567;SDS011;42456;49.956;20.004;2023-03-03T15:14:29;46.50;;;21.00;;
56567;SDS011;42456;49.956;20.004;2023-03-03T15:52:35;50.70;;;20.70;;
56567;SDS011;42456;49.956;20.004;2023-03-03T15:55:09;49.00;;;20.70;;
56567;SDS011;42456;49.956;20.004;2023-03-03T16:03:24;49.40;;;22.00;;
56567;SDS011;42456;49.956;20.004;2023-03-03T16:06:00;54.20;;;23.10;;
56567;SDS011;42456;49.956;20.004;2023-03-03T16:08:40;48.30;;;22.60;;
56567;SDS011;42456;49.956;20.004;2023-03-03T16:11:53;47.70;;;19.90;;
56567;SDS011;42456;49.956;20.004;2023-03-03T16:20:08;61.50;;;25.10;;
56567;SDS011;42456;49.956;20.004;2023-03-03T16:33:21;40.70;;;18.20;;
56567;SDS011;42456;49.956;20.004;2023-03-03T16:38:44;48.70;;;20.40;;
56567;SDS011;42456;49.956;20.004;2023-03-03T16:41:46;49.10;;;19.60;;
56567;SDS011;42456;49.956;20.004;2023-03-03T16:44:24;48.40;;;19.50;;
56567;SDS011;42456;49.956;20.004;2023-03-03T16:47:12;48.00;;;21.00;;
56567;SDS011;42456;49.956;20.004;2023-03-03T16:50:02;46.10;;;20.00;;
56567;SDS011;42456;49.956;20.004;2023-03-03T16:55:08;40.70;;;17.20;;
56567;SDS011;42456;49.956;20.004;2023-03-03T17:00:39;43.20;;;18.40;;
56567;SDS011;42456;49.956;20.004;2023-03-03T17:06:13;41.10;;;18.60;;
56567;SDS011;42456;49.956;20.004;2023-03-03T17:08:52;38.10;;;17.10;;
56567;SDS011;42456;49.956;20.004;2023-03-03T17:14:33;53.90;;;22.00;;
56567;SDS011;42456;49.956;20.004;2023-03-03T17:17:05;39.30;;;18.70;;
56567;SDS011;42456;49.956;20.004;2023-03-03T17:25:21;49.10;;;20.00;;
56567;SDS011;42456;49.956;20.004;2023-03-03T17:30:25;41.70;;;18.70;;
56567;SDS011;42456;49.956;20.004;2023-03-03T17:33:04;39.90;;;16.60;;
56567;SDS011;42456;49.956;20.004;2023-03-03T18:05:39;41.70;;;17.40;;
56567;SDS011;42456;49.956;20.004;2023-03-03T18:13:57;42.90;;;18.30;;
56567;SDS011;42456;49.956;20.004;2023-03-03T18:22:12;40.80;;;17.90;;
56567;SDS011;42456;49.956;20.004;2023-03-03T18:40:51;38.30;;;15.70;;
56567;SDS011;42456;49.956;20.004;2023-03-03T19:00:14;37.00;;;16.60;;
56567;SDS011;42456;49.956;20.004;2023-03-03T19:05:16;41.90;;;17.60;;
56567;SDS011;42456;49.956;20.004;2023-03-03T19:07:48;39.00;;;16.50;;
56567;SDS011;42456;49.956;20.004;2023-03-03T19:12:51;38.70;;;15.30;;
56567;SDS011;42456;49.956;20.004;2023-03-03T19:20:40;47.30;;;18.90;;
56567;SDS011;42456;49.956;20.004;2023-03-03T19:23:13;38.00;;;15.90;;
56567;SDS011;42456;49.956;20.004;2023-03-03T19:25:43;39.00;;;16.60;;
56567;SDS011;42456;49.956;20.004;2023-03-03T19:41:18;33.70;;;14.80;;
56567;SDS011;42456;49.956;20.004;2023-03-03T19:46:33;33.30;;;13.60;;
56567;SDS011;42456;49.956;20.004;2023-03-03T19:49:09;37.60;;;16.00;;
56567;SDS011;42456;49.956;20.004;2023-03-03T19:56:54;35.80;;;14.90;;
56567;SDS011;42456;49.956;20.004;2023-03-03T20:16:39;36.60;;;16.40;;
56567;SDS011;42456;49.956;20.004;2023-03-03T20:35:04;55.70;;;21.40;;
56567;SDS011;42456;49.956;20.004;2023-03-03T20:40:14;52.50;;;22.50;;
56567;SDS011;42456;49.956;20.004;2023-03-03T20:42:48;56.30;;;22.50;;
56567;SDS011;42456;49.956;20.004;2023-03-03T20:45:35;55.20;;;21.70;;
56567;SDS011;42456;49.956;20.004;2023-03-03T20:51:02;46.80;;;18.20;;
56567;SDS011;42456;49.956;20.004;2023-03-03T20:53:42;43.30;;;17.60;;
56567;SDS011;42456;49.956;20.004;2023-03-03T20:56:19;48.10;;;18.60;;
56567;SDS011;42456;49.956;20.004;2023-03-03T20:58:58;41.30;;;15.70;;
56567;SDS011;42456;49.956;20.004;2023-03-03T21:06:56;37.40;;;15.60;;
56567;SDS011;42456;49.956;20.004;2023-03-03T21:09:28;45.60;;;16.30;;
56567;SDS011;42456;49.956;20.004;2023-03-03T21:15:01;39.10;;;15.00;;
56567;SDS011;42456;49.956;20.004;2023-03-03T21:17:43;34.80;;;13.40;;
56567;SDS011;42456;49.956;20.004;2023-03-03T21:22:51;36.30;;;14.40;;
56567;SDS011;42456;49.956;20.004;2023-03-03T21:28:13;34.70;;;13.80;;
56567;SDS011;42456;49.956;20.004;2023-03-03T21:36:18;41.30;;;16.50;;
56567;SDS011;42456;49.956;20.004;2023-03-03T21:38:52;38.10;;;14.80;;
56567;SDS011;42456;49.956;20.004;2023-03-03T21:41:19;38.50;;;14.80;;
56567;SDS011;42456;49.956;20.004;2023-03-03T21:43:47;41.00;;;16.40;;
56567;SDS011;42456;49.956;20.004;2023-03-03T21:46:17;36.30;;;14.30;;
56567;SDS011;42456;49.956;20.004;2023-03-03T21:48:49;34.80;;;14.00;;
56567;SDS011;42456;49.956;20.004;2023-03-03T21:51:16;47.80;;;18.20;;
56567;SDS011;42456;49.956;20.004;2023-03-03T21:53:45;39.80;;;16.30;;
56567;SDS011;42456;49.956;20.004;2023-03-03T21:56:13;41.00;;;16.60;;
56567;SDS011;42456;49.956;20.004;2023-03-03T21:58:40;50.60;;;18.90;;
56567;SDS011;42456;49.956;20.004;2023-03-03T22:01:08;50.20;;;18.70;;
56567;SDS011;42456;49.956;20.004;2023-03-03T22:03:37;48.20;;;17.30;;
56567;SDS011;42456;49.956;20.004;2023-03-03T22:06:04;47.90;;;17.50;;
56567;SDS011;42456;49.956;20.004;2023-03-03T22:08:31;42.70;;;15.90;;
56567;SDS011;42456;49.956;20.004;2023-03-03T22:10:58;47.30;;;17.50;;
56567;SDS011;42456;49.956;20.004;2023-03-03T22:13:24;45.50;;;16.60;;
56567;SDS011;42456;49.956;20.004;2023-03-03T22:15:52;43.20;;;15.90;;
56567;SDS011;42456;49.956;20.004;2023-03-03T22:18:20;47.80;;;17.70;;
56567;SDS011;42456;49.956;20.004;2023-03-03T22:20:47;44.10;;;15.80;;
56567;SDS011;42456;49.956;20.004;2023-03-03T22:23:15;47.00;;;17.90;;
56567;SDS011;42456;49.956;20.004;2023-03-03T22:25:44;43.30;;;17.70;;
56567;SDS011;42456;49.956;20.004;2023-03-03T22:28:11;39.40;;;16.70;;
56567;SDS011;42456;49.956;20.004;2023-03-03T22:30:40;46.30;;;18.70;;
56567;SDS011;42456;49.956;20.004;2023-03-03T22:33:07;41.10;;;16.00;;
56567;SDS011;42456;49.956;20.004;2023-03-03T22:35:34;41.80;;;15.50;;
56567;SDS011;42456;49.956;20.004;2023-03-03T22:38:01;44.60;;;16.40;;